sensor_id;sensor_type;location;lat;lon;timestamp;temperature;humidity
7972;DHT22;4031;49.758;6.120;2023-02-15T00:01:51;-2.40;99.90
7972;DHT22;4031;49.758;6.120;2023-02-15T00:04:20;-2.30;99.90
7972;DHT22;4031;49.758;6.120;2023-02-15T00:06:48;-2.20;99.90
7972;DHT22;4031;49.758;6.120;2023-02-15T00:09:15;-2.30;99.90
7972;DHT22;4031;49.758;6.120;2023-02-15T00:11:41;-2.40;99.90
7972;DHT22;4031;49.758;6.120;2023-02-15T00:14:22;-2.40;99.90
7972;DHT22;4031;49.758;6.120;2023-02-15T00:16:50;-2.40;99.90
7972;DHT22;4031;49.758;6.120;2023-02-15T00:19:19;-2.40;99.90
7972;DHT22;4031;49.758;6.120;2023-02-15T00:21:46;-2.50;99.90
7972;DHT22;4031;49.758;6.120;2023-02-15T00:24:14;-2.60;99.90
7972;DHT22;4031;49.758;6.120;2023-02-15T00:26:42;-2.70;99.90
7972;DHT22;4031;49.758;6.120;2023-02-15T00:29:09;-2.70;99.90
7972;DHT22;4031;49.758;6.120;2023-02-15T00:31:36;-2.70;99.90
7972;DHT22;4031;49.758;6.120;2023-02-15T00:34:17;-2.80;99.90
7972;DHT22;4031;49.758;6.120;2023-02-15T00:36:47;-2.80;99.90
7972;DHT22;4031;49.758;6.120;2023-02-15T00:39:14;-2.90;99.90
7972;DHT22;4031;49.758;6.120;2023-02-15T00:41:40;-3.00;99.90
7972;DHT22;4031;49.758;6.120;2023-02-15T00:44:06;-2.90;99.90
7972;DHT22;4031;49.758;6.120;2023-02-15T00:46:32;-2.90;99.90
7972;DHT22;4031;49.758;6.120;2023-02-15T00:48:58;-2.90;99.90
7972;DHT22;4031;49.758;6.120;2023-02-15T00:51:24;-3.00;99.90
7972;DHT22;4031;49.758;6.120;2023-02-15T00:53:50;-3.00;99.90
7972;DHT22;4031;49.758;6.120;2023-02-15T00:56:16;-2.90;99.90
7972;DHT22;4031;49.758;6.120;2023-02-15T00:58:42;-2.80;99.90
7972;DHT22;4031;49.758;6.120;2023-02-15T01:01:13;-2.70;99.90
7972;DHT22;4031;49.758;6.120;2023-02-15T01:03:40;-2.60;99.90
7972;DHT22;4031;49.758;6.120;2023-02-15T01:06:10;-2.60;99.90
7972;DHT22;4031;49.758;6.120;2023-02-15T01:08:36;-2.60;99.90
7972;DHT22;4031;49.758;6.120;2023-02-15T01:11:04;-2.70;99.90
7972;DHT22;4031;49.758;6.120;2023-02-15T01:13:37;-2.70;99.90
7972;DHT22;4031;49.758;6.120;2023-02-15T01:16:03;-2.70;99.90
7972;DHT22;4031;49.758;6.120;2023-02-15T01:18:29;-2.90;99.90
7972;DHT22;4031;49.758;6.120;2023-02-15T01:20:55;-2.90;99.90
7972;DHT22;4031;49.758;6.120;2023-02-15T01:23:21;-2.90;99.90
7972;DHT22;4031;49.758;6.120;2023-02-15T01:25:47;-3.00;99.90
7972;DHT22;4031;49.758;6.120;2023-02-15T01:28:13;-3.00;99.90
7972;DHT22;4031;49.758;6.120;2023-02-15T01:30:39;-2.90;99.90
7972;DHT22;4031;49.758;6.120;2023-02-15T01:33:05;-2.90;99.90
7972;DHT22;4031;49.758;6.120;2023-02-15T01:35:31;-3.10;99.90
7972;DHT22;4031;49.758;6.120;2023-02-15T01:37:57;-3.10;99.90
7972;DHT22;4031;49.758;6.120;2023-02-15T01:40:23;-3.10;99.90
7972;DHT22;4031;49.758;6.120;2023-02-15T01:42:54;-3.10;99.90
7972;DHT22;4031;49.758;6.120;2023-02-15T01:45:31;-3.20;99.90
7972;DHT22;4031;49.758;6.120;2023-02-15T01:50:55;-3.00;99.90
7972;DHT22;4031;49.758;6.120;2023-02-15T01:53:54;-3.00;99.90
7972;DHT22;4031;49.758;6.120;2023-02-15T01:56:29;-2.90;99.90
7972;DHT22;4031;49.758;6.120;2023-02-15T01:59:02;-2.90;99.90
7972;DHT22;4031;49.758;6.120;2023-02-15T02:01:30;-2.90;99.90
7972;DHT22;4031;49.758;6.120;2023-02-15T02:04:04;-2.90;99.90
7972;DHT22;4031;49.758;6.120;2023-02-15T02:06:32;-2.90;99.90
7972;DHT22;4031;49.758;6.120;2023-02-15T02:08:58;-2.80;99.90
7972;DHT22;4031;49.758;6.120;2023-02-15T02:11:24;-2.80;99.90
7972;DHT22;4031;49.758;6.120;2023-02-15T02:13:51;-2.70;99.90
7972;DHT22;4031;49.758;6.120;2023-02-15T02:19:03;-2.60;99.90
7972;DHT22;4031;49.758;6.120;2023-02-15T02:34:15;-2.30;99.90
7972;DHT22;4031;49.758;6.120;2023-02-15T02:37:11;-2.30;99.90
7972;DHT22;4031;49.758;6.120;2023-02-15T02:43:10;-2.10;99.90
7972;DHT22;4031;49.758;6.120;2023-02-15T02:45:44;-2.00;99.90
7972;DHT22;4031;49.758;6.120;2023-02-15T02:48:24;-2.00;99.90
7972;DHT22;4031;49.758;6.120;2023-02-15T02:50:51;-2.00;99.90
7972;DHT22;4031;49.758;6.120;2023-02-15T02:53:17;-2.00;99.90
7972;DHT22;4031;49.758;6.120;2023-02-15T02:55:53;-1.90;99.90
7972;DHT22;4031;49.758;6.120;2023-02-15T02:58:31;-1.90;99.90
7972;DHT22;4031;49.758;6.120;2023-02-15T03:01:10;-1.90;99.90
7972;DHT22;4031;49.758;6.120;2023-02-15T03:03:43;-1.90;99.90
7972;DHT22;4031;49.758;6.120;2023-02-15T03:06:16;-1.80;99.90
7972;DHT22;4031;49.758;6.120;2023-02-15T03:09:03;-1.90;99.90
7972;DHT22;4031;49.758;6.120;2023-02-15T03:11:40;-1.90;99.90
7972;DHT22;4031;49.758;6.120;2023-02-15T03:14:08;-1.90;99.90
7972;DHT22;4031;49.758;6.120;2023-02-15T03:16:34;-1.90;99.90
7972;DHT22;4031;49.758;6.120;2023-02-15T03:19:10;-1.90;99.90
7972;DHT22;4031;49.758;6.120;2023-02-15T03:21:47;-1.90;99.90
7972;DHT22;4031;49.758;6.120;2023-02-15T03:24:18;-1.80;99.90
7972;DHT22;4031;49.758;6.120;2023-02-15T03:26:48;-1.80;99.90
7972;DHT22;4031;49.758;6.120;2023-02-15T03:29:18;-1.70;99.90
7972;DHT22;4031;49.758;6.120;2023-02-15T03:31:47;-1.90;99.90
7972;DHT22;4031;49.758;6.120;2023-02-15T03:34:17;-1.80;99.90
7972;DHT22;4031;49.758;6.120;2023-02-15T03:39:42;-1.90;99.90
7972;DHT22;4031;49.758;6.120;2023-02-15T03:42:13;-1.90;99.90
7972;DHT22;4031;49.758;6.120;2023-02-15T03:44:54;-1.90;99.90
7972;DHT22;4031;49.758;6.120;2023-02-15T03:47:28;-2.00;99.90
7972;DHT22;4031;49.758;6.120;2023-02-15T03:50:07;-2.00;99.90
7972;DHT22;4031;49.758;6.120;2023-02-15T03:52:57;-2.00;99.90
7972;DHT22;4031;49.758;6.120;2023-02-15T03:55:24;-2.00;99.90
7972;DHT22;4031;49.758;6.120;2023-02-15T03:57:50;-2.00;99.90
7972;DHT22;4031;49.758;6.120;2023-02-15T04:00:37;-2.00;99.90
7972;DHT22;4031;49.758;6.120;2023-02-15T04:03:33;-2.00;99.90
7972;DHT22;4031;49.758;6.120;2023-02-15T04:06:05;-1.90;99.90
7972;DHT22;4031;49.758;6.120;2023-02-15T04:08:30;-2.00;99.90
7972;DHT22;4031;49.758;6.120;2023-02-15T04:11:14;-2.00;99.90
7972;DHT22;4031;49.758;6.120;2023-02-15T04:13:40;-2.00;99.90
7972;DHT22;4031;49.758;6.120;2023-02-15T04:16:06;-2.00;99.90
7972;DHT22;4031;49.758;6.120;2023-02-15T04:18:42;-2.00;99.90
7972;DHT22;4031;49.758;6.120;2023-02-15T04:21:29;-2.00;99.90
7972;DHT22;4031;49.758;6.120;2023-02-15T04:24:14;-2.10;99.90
7972;DHT22;4031;49.758;6.120;2023-02-15T04:26:59;-2.00;99.90
7972;DHT22;4031;49.758;6.120;2023-02-15T04:29:26;-2.10;99.90
7972;DHT22;4031;49.758;6.120;2023-02-15T04:31:56;-2.10;99.90
7972;DHT22;4031;49.758;6.120;2023-02-15T04:34:22;-2.10;99.90
7972;DHT22;4031;49.758;6.120;2023-02-15T04:36:48;-2.10;99.90
7972;DHT22;4031;49.758;6.120;2023-02-15T04:39:16;-2.20;99.90
7972;DHT22;4031;49.758;6.120;2023-02-15T04:41:43;-2.20;99.90
7972;DHT22;4031;49.758;6.120;2023-02-15T04:44:10;-2.10;99.90
7972;DHT22;4031;49.758;6.120;2023-02-15T04:46:36;-2.10;99.90
7972;DHT22;4031;49.758;6.120;2023-02-15T04:49:01;-2.10;99.90
7972;DHT22;4031;49.758;6.120;2023-02-15T04:51:28;-2.10;99.90
7972;DHT22;4031;49.758;6.120;2023-02-15T04:53:54;-2.10;99.90
7972;DHT22;4031;49.758;6.120;2023-02-15T04:56:20;-2.10;99.90
7972;DHT22;4031;49.758;6.120;2023-02-15T04:58:46;-2.20;99.90
7972;DHT22;4031;49.758;6.120;2023-02-15T05:01:12;-2.30;99.90
7972;DHT22;4031;49.758;6.120;2023-02-15T05:03:38;-2.30;99.90
7972;DHT22;4031;49.758;6.120;2023-02-15T05:06:04;-2.30;99.90
7972;DHT22;4031;49.758;6.120;2023-02-15T05:08:31;-2.40;99.90
7972;DHT22;4031;49.758;6.120;2023-02-15T05:10:57;-2.40;99.90
7972;DHT22;4031;49.758;6.120;2023-02-15T05:13:23;-2.50;99.90
7972;DHT22;4031;49.758;6.120;2023-02-15T05:15:50;-2.50;99.90
7972;DHT22;4031;49.758;6.120;2023-02-15T05:18:18;-2.50;99.90
7972;DHT22;4031;49.758;6.120;2023-02-15T05:20:44;-2.50;99.90
7972;DHT22;4031;49.758;6.120;2023-02-15T05:23:10;-2.50;99.90
7972;DHT22;4031;49.758;6.120;2023-02-15T05:25:36;-2.50;99.90
7972;DHT22;4031;49.758;6.120;2023-02-15T05:28:21;-2.40;99.90
7972;DHT22;4031;49.758;6.120;2023-02-15T05:33:52;-2.50;99.90
7972;DHT22;4031;49.758;6.120;2023-02-15T05:36:18;-2.40;99.90
7972;DHT22;4031;49.758;6.120;2023-02-15T05:38:44;-2.40;99.90
7972;DHT22;4031;49.758;6.120;2023-02-15T05:41:10;-2.50;99.90
7972;DHT22;4031;49.758;6.120;2023-02-15T05:43:37;-2.50;99.90
7972;DHT22;4031;49.758;6.120;2023-02-15T05:46:04;-2.50;99.90
7972;DHT22;4031;49.758;6.120;2023-02-15T05:48:30;-2.50;99.90
7972;DHT22;4031;49.758;6.120;2023-02-15T05:51:10;-2.50;99.90
7972;DHT22;4031;49.758;6.120;2023-02-15T05:53:41;-2.40;99.90
7972;DHT22;4031;49.758;6.120;2023-02-15T05:56:08;-2.50;99.90
7972;DHT22;4031;49.758;6.120;2023-02-15T05:58:38;-2.50;99.90
7972;DHT22;4031;49.758;6.120;2023-02-15T06:01:08;-2.60;99.90
7972;DHT22;4031;49.758;6.120;2023-02-15T06:03:34;-2.60;99.90
7972;DHT22;4031;49.758;6.120;2023-02-15T06:06:00;-2.70;99.90
7972;DHT22;4031;49.758;6.120;2023-02-15T06:08:25;-2.70;99.90
7972;DHT22;4031;49.758;6.120;2023-02-15T06:10:51;-2.70;99.90
7972;DHT22;4031;49.758;6.120;2023-02-15T06:13:17;-2.70;99.90
7972;DHT22;4031;49.758;6.120;2023-02-15T06:15:42;-2.70;99.90
7972;DHT22;4031;49.758;6.120;2023-02-15T06:18:08;-2.70;99.90
7972;DHT22;4031;49.758;6.120;2023-02-15T06:20:34;-2.70;99.90
7972;DHT22;4031;49.758;6.120;2023-02-15T06:22:59;-2.70;99.90
7972;DHT22;4031;49.758;6.120;2023-02-15T06:25:25;-2.80;99.90
7972;DHT22;4031;49.758;6.120;2023-02-15T06:27:51;-2.80;99.90
7972;DHT22;4031;49.758;6.120;2023-02-15T06:30:17;-2.70;99.90
7972;DHT22;4031;49.758;6.120;2023-02-15T06:32:43;-2.80;99.90
7972;DHT22;4031;49.758;6.120;2023-02-15T06:35:08;-2.80;99.90
7972;DHT22;4031;49.758;6.120;2023-02-15T06:37:34;-2.80;99.90
7972;DHT22;4031;49.758;6.120;2023-02-15T06:40:00;-2.80;99.90
7972;DHT22;4031;49.758;6.120;2023-02-15T06:42:26;-2.80;99.90
7972;DHT22;4031;49.758;6.120;2023-02-15T06:44:51;-2.90;99.90
7972;DHT22;4031;49.758;6.120;2023-02-15T06:47:17;-2.90;99.90
7972;DHT22;4031;49.758;6.120;2023-02-15T06:49:43;-2.90;99.90
7972;DHT22;4031;49.758;6.120;2023-02-15T06:52:09;-2.90;99.90
7972;DHT22;4031;49.758;6.120;2023-02-15T06:54:34;-2.80;99.90
7972;DHT22;4031;49.758;6.120;2023-02-15T06:57:00;-2.80;99.90
7972;DHT22;4031;49.758;6.120;2023-02-15T06:59:26;-2.80;99.90
7972;DHT22;4031;49.758;6.120;2023-02-15T07:01:51;-2.70;99.90
7972;DHT22;4031;49.758;6.120;2023-02-15T07:04:17;-2.70;99.90
7972;DHT22;4031;49.758;6.120;2023-02-15T07:06:43;-2.70;99.90
7972;DHT22;4031;49.758;6.120;2023-02-15T07:09:09;-2.60;99.90
7972;DHT22;4031;49.758;6.120;2023-02-15T07:11:35;-2.50;99.90
7972;DHT22;4031;49.758;6.120;2023-02-15T07:14:19;-2.60;99.90
7972;DHT22;4031;49.758;6.120;2023-02-15T07:16:45;-2.60;99.90
7972;DHT22;4031;49.758;6.120;2023-02-15T07:19:10;-2.60;99.90
7972;DHT22;4031;49.758;6.120;2023-02-15T07:21:36;-2.70;99.90
7972;DHT22;4031;49.758;6.120;2023-02-15T07:24:02;-2.60;99.90
7972;DHT22;4031;49.758;6.120;2023-02-15T07:26:29;-2.60;99.90
7972;DHT22;4031;49.758;6.120;2023-02-15T07:28:56;-2.50;99.90
7972;DHT22;4031;49.758;6.120;2023-02-15T07:31:22;-2.40;99.90
7972;DHT22;4031;49.758;6.120;2023-02-15T07:33:47;-2.30;99.90
7972;DHT22;4031;49.758;6.120;2023-02-15T07:36:13;-2.30;99.90
7972;DHT22;4031;49.758;6.120;2023-02-15T07:38:40;-2.20;99.90
7972;DHT22;4031;49.758;6.120;2023-02-15T07:41:10;-2.20;99.90
7972;DHT22;4031;49.758;6.120;2023-02-15T07:43:39;-2.10;99.90
7972;DHT22;4031;49.758;6.120;2023-02-15T07:46:11;-2.00;99.90
7972;DHT22;4031;49.758;6.120;2023-02-15T07:48:40;-2.00;99.90
7972;DHT22;4031;49.758;6.120;2023-02-15T07:51:08;-1.90;99.90
7972;DHT22;4031;49.758;6.120;2023-02-15T07:53:35;-1.90;99.90
7972;DHT22;4031;49.758;6.120;2023-02-15T07:56:10;-1.80;99.90
7972;DHT22;4031;49.758;6.120;2023-02-15T07:58:38;-1.70;99.90
7972;DHT22;4031;49.758;6.120;2023-02-15T08:01:35;-1.60;99.90
7972;DHT22;4031;49.758;6.120;2023-02-15T08:04:04;-1.60;99.90
7972;DHT22;4031;49.758;6.120;2023-02-15T08:06:34;-1.50;99.90
7972;DHT22;4031;49.758;6.120;2023-02-15T08:09:02;-1.40;99.90
7972;DHT22;4031;49.758;6.120;2023-02-15T08:11:34;-1.40;99.90
7972;DHT22;4031;49.758;6.120;2023-02-15T08:14:07;-1.30;99.90
7972;DHT22;4031;49.758;6.120;2023-02-15T08:16:41;-1.20;99.90
7972;DHT22;4031;49.758;6.120;2023-02-15T08:19:10;-1.20;99.90
7972;DHT22;4031;49.758;6.120;2023-02-15T08:21:39;-1.20;99.90
7972;DHT22;4031;49.758;6.120;2023-02-15T08:24:08;-1.10;99.90
7972;DHT22;4031;49.758;6.120;2023-02-15T08:26:35;-1.10;99.90
7972;DHT22;4031;49.758;6.120;2023-02-15T08:29:02;-1.00;99.90
7972;DHT22;4031;49.758;6.120;2023-02-15T08:31:29;-0.90;99.90
7972;DHT22;4031;49.758;6.120;2023-02-15T08:33:55;-0.80;99.90
7972;DHT22;4031;49.758;6.120;2023-02-15T08:36:25;-0.70;99.90
7972;DHT22;4031;49.758;6.120;2023-02-15T08:38:52;-0.60;99.90
7972;DHT22;4031;49.758;6.120;2023-02-15T08:41:20;-0.60;99.90
7972;DHT22;4031;49.758;6.120;2023-02-15T08:43:50;-0.60;99.90
7972;DHT22;4031;49.758;6.120;2023-02-15T08:46:18;-0.50;99.90
7972;DHT22;4031;49.758;6.120;2023-02-15T08:48:44;-0.40;99.90
7972;DHT22;4031;49.758;6.120;2023-02-15T08:53:43;-0.40;99.90
7972;DHT22;4031;49.758;6.120;2023-02-15T08:56:17;-0.30;99.90
7972;DHT22;4031;49.758;6.120;2023-02-15T08:58:44;-0.10;99.90
7972;DHT22;4031;49.758;6.120;2023-02-15T09:01:19;-0.10;99.90
7972;DHT22;4031;49.758;6.120;2023-02-15T09:03:49;0.00;99.90
7972;DHT22;4031;49.758;6.120;2023-02-15T09:06:18;0.10;99.90
7972;DHT22;4031;49.758;6.120;2023-02-15T09:08:44;0.30;99.90
7972;DHT22;4031;49.758;6.120;2023-02-15T09:13:59;0.40;99.90
7972;DHT22;4031;49.758;6.120;2023-02-15T09:16:29;0.30;99.90
7972;DHT22;4031;49.758;6.120;2023-02-15T09:18:57;0.30;99.90
7972;DHT22;4031;49.758;6.120;2023-02-15T09:21:24;0.40;99.90
7972;DHT22;4031;49.758;6.120;2023-02-15T09:23:55;0.30;99.90
7972;DHT22;4031;49.758;6.120;2023-02-15T09:26:23;0.20;99.90
7972;DHT22;4031;49.758;6.120;2023-02-15T09:28:53;0.30;99.90
7972;DHT22;4031;49.758;6.120;2023-02-15T09:31:25;0.30;99.90
7972;DHT22;4031;49.758;6.120;2023-02-15T09:33:51;0.60;99.90
7972;DHT22;4031;49.758;6.120;2023-02-15T09:36:26;0.90;99.90
7972;DHT22;4031;49.758;6.120;2023-02-15T09:38:58;0.90;99.90
7972;DHT22;4031;49.758;6.120;2023-02-15T09:44:13;1.10;99.90
7972;DHT22;4031;49.758;6.120;2023-02-15T09:49:27;1.50;99.90
7972;DHT22;4031;49.758;6.120;2023-02-15T09:55:06;1.90;99.90
7972;DHT22;4031;49.758;6.120;2023-02-15T10:00:42;2.60;99.90
7972;DHT22;4031;49.758;6.120;2023-02-15T10:09:46;2.90;99.90
7972;DHT22;4031;49.758;6.120;2023-02-15T10:12:50;3.10;99.90
7972;DHT22;4031;49.758;6.120;2023-02-15T10:15:46;3.50;99.90
7972;DHT22;4031;49.758;6.120;2023-02-15T10:18:55;3.90;99.90
7972;DHT22;4031;49.758;6.120;2023-02-15T10:21:36;4.90;99.90
7972;DHT22;4031;49.758;6.120;2023-02-15T10:24:44;5.70;99.90
7972;DHT22;4031;49.758;6.120;2023-02-15T10:27:19;7.00;99.90
7972;DHT22;4031;49.758;6.120;2023-02-15T10:30:10;7.60;99.90
7972;DHT22;4031;49.758;6.120;2023-02-15T10:33:03;7.50;99.90
7972;DHT22;4031;49.758;6.120;2023-02-15T10:38:42;7.00;99.90
7972;DHT22;4031;49.758;6.120;2023-02-15T10:43:56;7.90;99.90
7972;DHT22;4031;49.758;6.120;2023-02-15T10:55:18;10.90;99.90
7972;DHT22;4031;49.758;6.120;2023-02-15T11:03:42;11.70;99.90
7972;DHT22;4031;49.758;6.120;2023-02-15T11:06:27;11.80;99.90
7972;DHT22;4031;49.758;6.120;2023-02-15T11:08:57;11.90;99.90
7972;DHT22;4031;49.758;6.120;2023-02-15T11:11:35;12.40;99.90
7972;DHT22;4031;49.758;6.120;2023-02-15T11:14:42;12.50;99.90
7972;DHT22;4031;49.758;6.120;2023-02-15T11:17:16;13.00;99.90
7972;DHT22;4031;49.758;6.120;2023-02-15T11:22:35;13.20;99.90
7972;DHT22;4031;49.758;6.120;2023-02-15T11:25:04;13.20;99.90
7972;DHT22;4031;49.758;6.120;2023-02-15T11:27:46;13.00;99.90
7972;DHT22;4031;49.758;6.120;2023-02-15T11:30:22;13.30;99.90
7972;DHT22;4031;49.758;6.120;2023-02-15T11:33:00;13.20;99.90
7972;DHT22;4031;49.758;6.120;2023-02-15T11:35:33;13.50;99.90
7972;DHT22;4031;49.758;6.120;2023-02-15T11:38:17;13.80;99.90
7972;DHT22;4031;49.758;6.120;2023-02-15T11:43:24;13.50;99.90
7972;DHT22;4031;49.758;6.120;2023-02-15T11:45:54;13.70;99.90
7972;DHT22;4031;49.758;6.120;2023-02-15T11:48:20;14.00;99.90
7972;DHT22;4031;49.758;6.120;2023-02-15T11:50:46;13.80;99.90
7972;DHT22;4031;49.758;6.120;2023-02-15T11:53:18;13.70;99.90
7972;DHT22;4031;49.758;6.120;2023-02-15T11:55:53;13.30;99.90
7972;DHT22;4031;49.758;6.120;2023-02-15T11:58:55;12.90;99.90
7972;DHT22;4031;49.758;6.120;2023-02-15T12:01:43;13.20;99.90
7972;DHT22;4031;49.758;6.120;2023-02-15T12:07:37;12.90;99.90
7972;DHT22;4031;49.758;6.120;2023-02-15T12:10:22;12.70;99.90
7972;DHT22;4031;49.758;6.120;2023-02-15T12:15:38;13.00;99.90
7972;DHT22;4031;49.758;6.120;2023-02-15T12:18:39;12.80;99.90
7972;DHT22;4031;49.758;6.120;2023-02-15T12:21:27;12.80;99.90
7972;DHT22;4031;49.758;6.120;2023-02-15T12:23:58;12.80;99.90
7972;DHT22;4031;49.758;6.120;2023-02-15T12:26:35;12.90;99.90
7972;DHT22;4031;49.758;6.120;2023-02-15T12:29:12;12.90;99.90
7972;DHT22;4031;49.758;6.120;2023-02-15T12:31:47;12.80;99.90
7972;DHT22;4031;49.758;6.120;2023-02-15T12:34:35;12.40;99.90
7972;DHT22;4031;49.758;6.120;2023-02-15T12:37:28;12.30;99.90
7972;DHT22;4031;49.758;6.120;2023-02-15T12:40:10;12.20;99.90
7972;DHT22;4031;49.758;6.120;2023-02-15T12:42:45;12.00;99.90
7972;DHT22;4031;49.758;6.120;2023-02-15T12:45:27;12.30;99.90
7972;DHT22;4031;49.758;6.120;2023-02-15T12:50:39;12.00;99.90
7972;DHT22;4031;49.758;6.120;2023-02-15T12:53:18;11.90;99.90
7972;DHT22;4031;49.758;6.120;2023-02-15T12:55:51;11.90;99.90
7972;DHT22;4031;49.758;6.120;2023-02-15T12:58:22;12.00;99.90
7972;DHT22;4031;49.758;6.120;2023-02-15T13:04:05;11.70;99.90
7972;DHT22;4031;49.758;6.120;2023-02-15T13:06:49;11.80;99.90
7972;DHT22;4031;49.758;6.120;2023-02-15T13:12:10;11.80;99.90
7972;DHT22;4031;49.758;6.120;2023-02-15T13:14:44;12.00;99.90
7972;DHT22;4031;49.758;6.120;2023-02-15T13:17:12;12.20;99.90
7972;DHT22;4031;49.758;6.120;2023-02-15T13:19:47;12.00;99.90
7972;DHT22;4031;49.758;6.120;2023-02-15T13:22:20;12.00;99.90
7972;DHT22;4031;49.758;6.120;2023-02-15T13:24:59;11.90;99.90
7972;DHT22;4031;49.758;6.120;2023-02-15T13:27:36;11.90;99.90
7972;DHT22;4031;49.758;6.120;2023-02-15T13:30:20;12.10;99.90
7972;DHT22;4031;49.758;6.120;2023-02-15T13:32:54;12.20;99.90
7972;DHT22;4031;49.758;6.120;2023-02-15T13:35:22;12.30;99.90
7972;DHT22;4031;49.758;6.120;2023-02-15T13:38:17;12.30;99.90
7972;DHT22;4031;49.758;6.120;2023-02-15T13:41:10;12.10;99.90
7972;DHT22;4031;49.758;6.120;2023-02-15T13:46:57;13.10;99.90
7972;DHT22;4031;49.758;6.120;2023-02-15T13:49:35;13.40;99.90
7972;DHT22;4031;49.758;6.120;2023-02-15T13:52:25;13.80;99.90
7972;DHT22;4031;49.758;6.120;2023-02-15T14:10:31;14.70;99.90
7972;DHT22;4031;49.758;6.120;2023-02-15T14:16:40;14.90;99.90
7972;DHT22;4031;49.758;6.120;2023-02-15T14:22:17;13.90;99.90
7972;DHT22;4031;49.758;6.120;2023-02-15T14:25:27;13.60;99.90
7972;DHT22;4031;49.758;6.120;2023-02-15T14:28:01;13.40;99.90
7972;DHT22;4031;49.758;6.120;2023-02-15T14:30:38;13.40;99.90
7972;DHT22;4031;49.758;6.120;2023-02-15T14:36:08;13.40;99.90
7972;DHT22;4031;49.758;6.120;2023-02-15T14:38:59;13.40;99.90
7972;DHT22;4031;49.758;6.120;2023-02-15T14:41:55;13.20;99.90
7972;DHT22;4031;49.758;6.120;2023-02-15T14:44:49;12.90;99.90
7972;DHT22;4031;49.758;6.120;2023-02-15T14:47:27;12.90;99.90
7972;DHT22;4031;49.758;6.120;2023-02-15T14:49:58;12.80;99.90
7972;DHT22;4031;49.758;6.120;2023-02-15T14:52:23;12.70;99.90
7972;DHT22;4031;49.758;6.120;2023-02-15T15:02:28;12.20;99.90
7972;DHT22;4031;49.758;6.120;2023-02-15T15:07:55;12.20;99.90
7972;DHT22;4031;49.758;6.120;2023-02-15T15:12:55;12.20;99.90
7972;DHT22;4031;49.758;6.120;2023-02-15T15:18:07;12.20;99.90
7972;DHT22;4031;49.758;6.120;2023-02-15T15:40:41;10.70;99.90
7972;DHT22;4031;49.758;6.120;2023-02-15T15:43:24;10.40;99.90
7972;DHT22;4031;49.758;6.120;2023-02-15T15:46:33;10.10;99.90
7972;DHT22;4031;49.758;6.120;2023-02-15T15:49:20;9.80;99.90
7972;DHT22;4031;49.758;6.120;2023-02-15T15:51:47;9.60;99.90
7972;DHT22;4031;49.758;6.120;2023-02-15T15:54:22;9.50;99.90
7972;DHT22;4031;49.758;6.120;2023-02-15T15:57:02;9.40;99.90
7972;DHT22;4031;49.758;6.120;2023-02-15T15:59:31;9.40;99.90
7972;DHT22;4031;49.758;6.120;2023-02-15T16:02:11;9.30;99.90
7972;DHT22;4031;49.758;6.120;2023-02-15T16:04:40;9.10;99.90
7972;DHT22;4031;49.758;6.120;2023-02-15T16:10:02;8.90;99.90
7972;DHT22;4031;49.758;6.120;2023-02-15T16:12:37;8.70;99.90
7972;DHT22;4031;49.758;6.120;2023-02-15T16:17:53;8.20;99.90
7972;DHT22;4031;49.758;6.120;2023-02-15T16:20:31;8.00;99.90
7972;DHT22;4031;49.758;6.120;2023-02-15T16:23:27;7.70;99.90
7972;DHT22;4031;49.758;6.120;2023-02-15T16:26:09;7.40;99.90
7972;DHT22;4031;49.758;6.120;2023-02-15T16:28:57;7.10;99.90
7972;DHT22;4031;49.758;6.120;2023-02-15T16:31:23;6.70;99.90
7972;DHT22;4031;49.758;6.120;2023-02-15T16:33:52;6.50;99.90
7972;DHT22;4031;49.758;6.120;2023-02-15T16:36:25;6.30;99.90
7972;DHT22;4031;49.758;6.120;2023-02-15T16:41:22;5.70;99.90
7972;DHT22;4031;49.758;6.120;2023-02-15T16:43:50;5.50;99.90
7972;DHT22;4031;49.758;6.120;2023-02-15T16:46:26;5.30;99.90
7972;DHT22;4031;49.758;6.120;2023-02-15T16:48:57;5.10;99.90
7972;DHT22;4031;49.758;6.120;2023-02-15T16:51:29;4.90;99.90
7972;DHT22;4031;49.758;6.120;2023-02-15T16:54:00;4.70;99.90
7972;DHT22;4031;49.758;6.120;2023-02-15T16:56:31;4.50;99.90
7972;DHT22;4031;49.758;6.120;2023-02-15T16:58:58;4.30;99.90
7972;DHT22;4031;49.758;6.120;2023-02-15T17:01:28;4.20;99.90
7972;DHT22;4031;49.758;6.120;2023-02-15T17:04:27;4.00;99.90
7972;DHT22;4031;49.758;6.120;2023-02-15T17:09:49;3.80;99.90
7972;DHT22;4031;49.758;6.120;2023-02-15T17:12:44;3.70;99.90
7972;DHT22;4031;49.758;6.120;2023-02-15T17:15:40;3.50;99.90
7972;DHT22;4031;49.758;6.120;2023-02-15T17:18:17;3.40;99.90
7972;DHT22;4031;49.758;6.120;2023-02-15T17:20:45;3.30;99.90
7972;DHT22;4031;49.758;6.120;2023-02-15T17:23:35;3.30;99.90
7972;DHT22;4031;49.758;6.120;2023-02-15T17:26:21;3.20;99.90
7972;DHT22;4031;49.758;6.120;2023-02-15T17:28:51;3.10;99.90
7972;DHT22;4031;49.758;6.120;2023-02-15T17:31:20;3.00;99.90
7972;DHT22;4031;49.758;6.120;2023-02-15T17:33:47;2.80;99.90
7972;DHT22;4031;49.758;6.120;2023-02-15T17:39:04;2.70;99.90
7972;DHT22;4031;49.758;6.120;2023-02-15T17:41:33;2.60;99.90
7972;DHT22;4031;49.758;6.120;2023-02-15T17:44:01;2.50;99.90
7972;DHT22;4031;49.758;6.120;2023-02-15T17:46:32;2.50;99.90
7972;DHT22;4031;49.758;6.120;2023-02-15T17:49:00;2.40;99.90
7972;DHT22;4031;49.758;6.120;2023-02-15T17:51:26;2.30;99.90
7972;DHT22;4031;49.758;6.120;2023-02-15T17:53:52;2.20;99.90
7972;DHT22;4031;49.758;6.120;2023-02-15T17:56:37;2.20;99.90
7972;DHT22;4031;49.758;6.120;2023-02-15T17:59:04;2.00;99.90
7972;DHT22;4031;49.758;6.120;2023-02-15T18:01:37;2.00;99.90
7972;DHT22;4031;49.758;6.120;2023-02-15T18:04:26;1.90;99.90
7972;DHT22;4031;49.758;6.120;2023-02-15T18:07:12;1.80;99.90
7972;DHT22;4031;49.758;6.120;2023-02-15T18:09:57;1.70;99.90
7972;DHT22;4031;49.758;6.120;2023-02-15T18:12:41;1.60;99.90
7972;DHT22;4031;49.758;6.120;2023-02-15T18:15:07;1.60;99.90
7972;DHT22;4031;49.758;6.120;2023-02-15T18:17:39;1.60;99.90
7972;DHT22;4031;49.758;6.120;2023-02-15T18:22:43;1.50;99.90
7972;DHT22;4031;49.758;6.120;2023-02-15T18:25:14;1.50;99.90
7972;DHT22;4031;49.758;6.120;2023-02-15T18:27:41;1.50;99.90
7972;DHT22;4031;49.758;6.120;2023-02-15T18:30:13;1.50;99.90
7972;DHT22;4031;49.758;6.120;2023-02-15T18:32:41;1.40;99.90
7972;DHT22;4031;49.758;6.120;2023-02-15T18:35:12;1.40;99.90
7972;DHT22;4031;49.758;6.120;2023-02-15T18:37:39;1.30;99.90
7972;DHT22;4031;49.758;6.120;2023-02-15T18:40:12;1.20;99.90
7972;DHT22;4031;49.758;6.120;2023-02-15T18:42:39;1.10;99.90
7972;DHT22;4031;49.758;6.120;2023-02-15T18:45:21;1.20;99.90
7972;DHT22;4031;49.758;6.120;2023-02-15T18:47:49;1.30;99.90
7972;DHT22;4031;49.758;6.120;2023-02-15T18:50:18;1.60;99.90
7972;DHT22;4031;49.758;6.120;2023-02-15T18:52:46;1.70;99.90
7972;DHT22;4031;49.758;6.120;2023-02-15T18:55:23;1.70;99.90
7972;DHT22;4031;49.758;6.120;2023-02-15T18:57:52;1.80;99.90
7972;DHT22;4031;49.758;6.120;2023-02-15T19:00:27;1.70;99.90
7972;DHT22;4031;49.758;6.120;2023-02-15T19:02:55;1.70;99.90
7972;DHT22;4031;49.758;6.120;2023-02-15T19:05:21;1.60;99.90
7972;DHT22;4031;49.758;6.120;2023-02-15T19:07:48;1.50;99.90
7972;DHT22;4031;49.758;6.120;2023-02-15T19:10:20;1.50;99.90
7972;DHT22;4031;49.758;6.120;2023-02-15T19:12:48;1.30;99.90
7972;DHT22;4031;49.758;6.120;2023-02-15T19:15:20;1.20;99.90
7972;DHT22;4031;49.758;6.120;2023-02-15T19:17:51;1.00;99.90
7972;DHT22;4031;49.758;6.120;2023-02-15T19:20:20;0.90;99.90
7972;DHT22;4031;49.758;6.120;2023-02-15T19:22:49;0.90;99.90
7972;DHT22;4031;49.758;6.120;2023-02-15T19:25:20;0.90;99.90
7972;DHT22;4031;49.758;6.120;2023-02-15T19:27:47;1.00;99.90
7972;DHT22;4031;49.758;6.120;2023-02-15T19:30:17;1.00;99.90
7972;DHT22;4031;49.758;6.120;2023-02-15T19:32:45;1.00;99.90
7972;DHT22;4031;49.758;6.120;2023-02-15T19:35:16;0.90;99.90